sensor_id;sensor_type;location;lat;lon;timestamp;P1;durP1;ratioP1;P2;durP2;ratioP2
45867;SDS011;31582;45.490;7.860;2023-05-10T00:00:39;0.45;;;0.15;;
45867;SDS011;31582;45.490;7.860;2023-05-10T00:03:06;0.20;;;0.10;;
45867;SDS011;31582;45.490;7.860;2023-05-10T00:05:33;1.00;;;0.10;;
45867;SDS011;31582;45.490;7.860;2023-05-10T00:08:00;0.10;;;0.10;;
45867;SDS011;31582;45.490;7.860;2023-05-10T00:10:27;0.20;;;0.10;;
45867;SDS011;31582;45.490;7.860;2023-05-10T00:12:54;0.35;;;0.10;;
45867;SDS011;31582;45.490;7.860;2023-05-10T00:15:21;0.60;;;0.10;;
45867;SDS011;31582;45.490;7.860;2023-05-10T00:17:48;0.10;;;0.00;;
45867;SDS011;31582;45.490;7.860;2023-05-10T00:20:14;0.10;;;0.10;;
45867;SDS011;31582;45.490;7.860;2023-05-10T00:22:42;0.10;;;0.10;;
45867;SDS011;31582;45.490;7.860;2023-05-10T00:25:09;0.30;;;0.00;;
45867;SDS011;31582;45.490;7.860;2023-05-10T00:27:36;0.40;;;0.10;;
45867;SDS011;31582;45.490;7.860;2023-05-10T00:30:03;0.40;;;0.00;;
45867;SDS011;31582;45.490;7.860;2023-05-10T00:32:30;0.00;;;0.00;;
45867;SDS011;31582;45.490;7.860;2023-05-10T00:34:57;0.10;;;0.00;;
45867;SDS011;31582;45.490;7.860;2023-05-10T00:37:24;0.00;;;0.00;;
45867;SDS011;31582;45.490;7.860;2023-05-10T00:39:51;0.10;;;0.10;;
45867;SDS011;31582;45.490;7.860;2023-05-10T00:42:18;0.00;;;0.00;;
45867;SDS011;31582;45.490;7.860;2023-05-10T00:44:45;0.03;;;0.00;;
45867;SDS011;31582;45.490;7.860;2023-05-10T00:47:12;0.10;;;0.10;;
45867;SDS011;31582;45.490;7.860;2023-05-10T00:49:40;0.20;;;0.00;;
45867;SDS011;31582;45.490;7.860;2023-05-10T00:52:08;0.30;;;0.10;;
45867;SDS011;31582;45.490;7.860;2023-05-10T00:54:35;0.10;;;0.10;;
45867;SDS011;31582;45.490;7.860;2023-05-10T00:57:02;0.20;;;0.10;;
45867;SDS011;31582;45.490;7.860;2023-05-10T00:59:30;0.30;;;0.10;;
45867;SDS011;31582;45.490;7.860;2023-05-10T01:01:57;0.10;;;0.00;;
45867;SDS011;31582;45.490;7.860;2023-05-10T01:04:24;0.00;;;0.00;;
45867;SDS011;31582;45.490;7.860;2023-05-10T01:06:54;0.20;;;0.10;;
45867;SDS011;31582;45.490;7.860;2023-05-10T01:09:21;0.30;;;0.10;;
45867;SDS011;31582;45.490;7.860;2023-05-10T01:11:49;0.00;;;0.00;;
45867;SDS011;31582;45.490;7.860;2023-05-10T01:14:17;0.60;;;0.00;;
45867;SDS011;31582;45.490;7.860;2023-05-10T01:16:46;0.30;;;0.00;;
45867;SDS011;31582;45.490;7.860;2023-05-10T01:19:23;0.05;;;0.00;;
45867;SDS011;31582;45.490;7.860;2023-05-10T01:36:10;0.10;;;0.10;;
45867;SDS011;31582;45.490;7.860;2023-05-10T01:41:45;0.00;;;0.00;;
45867;SDS011;31582;45.490;7.860;2023-05-10T01:44:31;0.05;;;0.00;;
45867;SDS011;31582;45.490;7.860;2023-05-10T01:47:14;0.90;;;0.00;;
45867;SDS011;31582;45.490;7.860;2023-05-10T01:49:50;0.40;;;0.00;;
45867;SDS011;31582;45.490;7.860;2023-05-10T01:52:19;0.65;;;0.00;;
45867;SDS011;31582;45.490;7.860;2023-05-10T01:54:55;0.08;;;0.00;;
45867;SDS011;31582;45.490;7.860;2023-05-10T01:57:29;0.43;;;0.00;;
45867;SDS011;31582;45.490;7.860;2023-05-10T02:00:02;0.32;;;0.00;;
45867;SDS011;31582;45.490;7.860;2023-05-10T02:02:33;0.60;;;0.00;;
45867;SDS011;31582;45.490;7.860;2023-05-10T02:05:06;0.00;;;0.00;;
45867;SDS011;31582;45.490;7.860;2023-05-10T02:07:35;0.00;;;0.00;;
45867;SDS011;31582;45.490;7.860;2023-05-10T02:10:04;0.10;;;0.00;;
45867;SDS011;31582;45.490;7.860;2023-05-10T02:12:37;0.70;;;0.00;;
45867;SDS011;31582;45.490;7.860;2023-05-10T02:15:10;0.00;;;0.00;;
45867;SDS011;31582;45.490;7.860;2023-05-10T02:17:39;0.10;;;0.00;;
45867;SDS011;31582;45.490;7.860;2023-05-10T02:20:08;0.00;;;0.00;;
45867;SDS011;31582;45.490;7.860;2023-05-10T02:22:36;0.00;;;0.00;;
45867;SDS011;31582;45.490;7.860;2023-05-10T02:25:05;0.10;;;0.00;;
45867;SDS011;31582;45.490;7.860;2023-05-10T02:27:35;0.13;;;0.00;;
45867;SDS011;31582;45.490;7.860;2023-05-10T02:30:03;0.10;;;0.00;;
45867;SDS011;31582;45.490;7.860;2023-05-10T02:32:32;0.10;;;0.00;;
45867;SDS011;31582;45.490;7.860;2023-05-10T02:35:01;0.10;;;0.10;;
45867;SDS011;31582;45.490;7.860;2023-05-10T02:37:30;0.20;;;0.00;;
45867;SDS011;31582;45.490;7.860;2023-05-10T02:39:58;0.00;;;0.00;;
45867;SDS011;31582;45.490;7.860;2023-05-10T02:42:26;0.47;;;0.10;;
45867;SDS011;31582;45.490;7.860;2023-05-10T02:44:55;0.10;;;0.10;;
45867;SDS011;31582;45.490;7.860;2023-05-10T02:47:26;0.10;;;0.10;;
45867;SDS011;31582;45.490;7.860;2023-05-10T02:49:54;0.50;;;0.08;;
45867;SDS011;31582;45.490;7.860;2023-05-10T02:52:23;0.73;;;0.13;;
45867;SDS011;31582;45.490;7.860;2023-05-10T02:54:58;0.55;;;0.10;;
45867;SDS011;31582;45.490;7.860;2023-05-10T02:57:30;0.10;;;0.10;;
45867;SDS011;31582;45.490;7.860;2023-05-10T03:00:00;0.80;;;0.10;;
45867;SDS011;31582;45.490;7.860;2023-05-10T03:02:29;0.10;;;0.10;;
45867;SDS011;31582;45.490;7.860;2023-05-10T03:04:57;0.20;;;0.10;;
45867;SDS011;31582;45.490;7.860;2023-05-10T03:07:24;0.27;;;0.10;;
45867;SDS011;31582;45.490;7.860;2023-05-10T03:09:51;0.10;;;0.10;;
45867;SDS011;31582;45.490;7.860;2023-05-10T03:15:30;0.10;;;0.10;;
45867;SDS011;31582;45.490;7.860;2023-05-10T03:20:57;0.10;;;0.00;;
45867;SDS011;31582;45.490;7.860;2023-05-10T03:23:30;0.10;;;0.10;;
45867;SDS011;31582;45.490;7.860;2023-05-10T03:26:09;0.60;;;0.10;;
45867;SDS011;31582;45.490;7.860;2023-05-10T03:28:39;0.17;;;0.10;;
45867;SDS011;31582;45.490;7.860;2023-05-10T03:31:07;0.73;;;0.40;;
45867;SDS011;31582;45.490;7.860;2023-05-10T03:33:35;1.50;;;0.77;;
45867;SDS011;31582;45.490;7.860;2023-05-10T03:36:02;3.53;;;2.53;;
45867;SDS011;31582;45.490;7.860;2023-05-10T03:38:29;0.73;;;0.60;;
45867;SDS011;31582;45.490;7.860;2023-05-10T03:40:56;0.40;;;0.30;;
45867;SDS011;31582;45.490;7.860;2023-05-10T03:43:23;0.40;;;0.30;;
45867;SDS011;31582;45.490;7.860;2023-05-10T03:45:50;0.40;;;0.20;;
45867;SDS011;31582;45.490;7.860;2023-05-10T03:48:17;0.20;;;0.13;;
45867;SDS011;31582;45.490;7.860;2023-05-10T03:50:43;0.30;;;0.30;;
45867;SDS011;31582;45.490;7.860;2023-05-10T03:53:10;0.30;;;0.20;;
45867;SDS011;31582;45.490;7.860;2023-05-10T03:55:38;0.60;;;0.30;;
45867;SDS011;31582;45.490;7.860;2023-05-10T03:58:05;0.50;;;0.30;;
45867;SDS011;31582;45.490;7.860;2023-05-10T04:00:32;0.32;;;0.30;;
45867;SDS011;31582;45.490;7.860;2023-05-10T04:02:59;0.40;;;0.30;;
45867;SDS011;31582;45.490;7.860;2023-05-10T04:05:26;0.50;;;0.30;;
45867;SDS011;31582;45.490;7.860;2023-05-10T04:07:52;0.30;;;0.30;;
45867;SDS011;31582;45.490;7.860;2023-05-10T04:10:19;0.50;;;0.30;;
45867;SDS011;31582;45.490;7.860;2023-05-10T04:12:47;0.25;;;0.25;;
45867;SDS011;31582;45.490;7.860;2023-05-10T04:15:14;0.30;;;0.28;;
45867;SDS011;31582;45.490;7.860;2023-05-10T04:17:41;0.43;;;0.20;;
45867;SDS011;31582;45.490;7.860;2023-05-10T04:20:08;0.17;;;0.17;;
45867;SDS011;31582;45.490;7.860;2023-05-10T04:22:35;0.20;;;0.20;;
45867;SDS011;31582;45.490;7.860;2023-05-10T04:25:02;0.70;;;0.20;;
45867;SDS011;31582;45.490;7.860;2023-05-10T04:27:29;0.10;;;0.10;;
45867;SDS011;31582;45.490;7.860;2023-05-10T04:29:57;0.70;;;0.20;;
45867;SDS011;31582;45.490;7.860;2023-05-10T04:32:23;0.90;;;0.20;;
45867;SDS011;31582;45.490;7.860;2023-05-10T04:34:50;0.30;;;0.10;;
45867;SDS011;31582;45.490;7.860;2023-05-10T04:37:17;0.20;;;0.20;;
45867;SDS011;31582;45.490;7.860;2023-05-10T04:39:44;0.20;;;0.13;;
45867;SDS011;31582;45.490;7.860;2023-05-10T04:42:11;0.50;;;0.10;;
45867;SDS011;31582;45.490;7.860;2023-05-10T04:44:38;0.20;;;0.20;;
45867;SDS011;31582;45.490;7.860;2023-05-10T04:47:05;0.20;;;0.20;;
45867;SDS011;31582;45.490;7.860;2023-05-10T04:49:32;0.40;;;0.30;;
45867;SDS011;31582;45.490;7.860;2023-05-10T04:51:58;0.20;;;0.20;;
45867;SDS011;31582;45.490;7.860;2023-05-10T04:54:25;0.47;;;0.35;;
45867;SDS011;31582;45.490;7.860;2023-05-10T04:56:52;1.20;;;0.60;;
45867;SDS011;31582;45.490;7.860;2023-05-10T04:59:19;0.40;;;0.30;;
45867;SDS011;31582;45.490;7.860;2023-05-10T05:01:46;0.50;;;0.40;;
45867;SDS011;31582;45.490;7.860;2023-05-10T05:04:15;0.40;;;0.32;;
45867;SDS011;31582;45.490;7.860;2023-05-10T05:06:42;0.40;;;0.40;;
45867;SDS011;31582;45.490;7.860;2023-05-10T05:09:09;0.50;;;0.40;;
45867;SDS011;31582;45.490;7.860;2023-05-10T05:11:36;0.30;;;0.30;;
45867;SDS011;31582;45.490;7.860;2023-05-10T05:14:03;0.20;;;0.20;;
45867;SDS011;31582;45.490;7.860;2023-05-10T05:16:30;0.30;;;0.30;;
45867;SDS011;31582;45.490;7.860;2023-05-10T05:18:59;0.70;;;0.20;;
45867;SDS011;31582;45.490;7.860;2023-05-10T05:21:26;0.30;;;0.30;;
45867;SDS011;31582;45.490;7.860;2023-05-10T05:23:53;0.32;;;0.30;;
45867;SDS011;31582;45.490;7.860;2023-05-10T05:26:22;0.30;;;0.30;;
45867;SDS011;31582;45.490;7.860;2023-05-10T05:28:49;0.28;;;0.20;;
45867;SDS011;31582;45.490;7.860;2023-05-10T05:31:20;0.47;;;0.30;;
45867;SDS011;31582;45.490;7.860;2023-05-10T05:33:47;0.30;;;0.30;;
45867;SDS011;31582;45.490;7.860;2023-05-10T05:36:14;0.30;;;0.30;;
45867;SDS011;31582;45.490;7.860;2023-05-10T05:38:41;0.80;;;0.30;;
45867;SDS011;31582;45.490;7.860;2023-05-10T05:41:08;0.20;;;0.20;;
45867;SDS011;31582;45.490;7.860;2023-05-10T05:43:34;0.30;;;0.30;;
45867;SDS011;31582;45.490;7.860;2023-05-10T05:46:03;0.30;;;0.30;;
45867;SDS011;31582;45.490;7.860;2023-05-10T05:48:31;0.30;;;0.30;;
45867;SDS011;31582;45.490;7.860;2023-05-10T05:50:57;0.80;;;0.40;;
45867;SDS011;31582;45.490;7.860;2023-05-10T05:53:25;0.55;;;0.38;;
45867;SDS011;31582;45.490;7.860;2023-05-10T05:55:55;0.70;;;0.40;;
45867;SDS011;31582;45.490;7.860;2023-05-10T05:58:24;0.38;;;0.38;;
45867;SDS011;31582;45.490;7.860;2023-05-10T06:00:51;0.30;;;0.30;;
45867;SDS011;31582;45.490;7.860;2023-05-10T06:03:19;0.50;;;0.40;;
45867;SDS011;31582;45.490;7.860;2023-05-10T06:05:46;0.30;;;0.30;;
45867;SDS011;31582;45.490;7.860;2023-05-10T06:08:14;0.30;;;0.30;;
45867;SDS011;31582;45.490;7.860;2023-05-10T06:10:41;0.40;;;0.40;;
45867;SDS011;31582;45.490;7.860;2023-05-10T06:13:08;0.40;;;0.40;;
45867;SDS011;31582;45.490;7.860;2023-05-10T06:15:35;0.57;;;0.40;;
45867;SDS011;31582;45.490;7.860;2023-05-10T06:18:02;1.00;;;0.55;;
45867;SDS011;31582;45.490;7.860;2023-05-10T06:20:29;0.40;;;0.40;;
45867;SDS011;31582;45.490;7.860;2023-05-10T06:22:57;0.80;;;0.50;;
45867;SDS011;31582;45.490;7.860;2023-05-10T06:25:24;0.60;;;0.60;;
45867;SDS011;31582;45.490;7.860;2023-05-10T06:27:51;0.50;;;0.50;;
45867;SDS011;31582;45.490;7.860;2023-05-10T06:30:23;0.60;;;0.50;;
45867;SDS011;31582;45.490;7.860;2023-05-10T06:32:53;1.05;;;0.55;;
45867;SDS011;31582;45.490;7.860;2023-05-10T06:35:21;0.60;;;0.50;;
45867;SDS011;31582;45.490;7.860;2023-05-10T06:37:48;0.60;;;0.60;;
45867;SDS011;31582;45.490;7.860;2023-05-10T06:40:15;0.77;;;0.70;;
45867;SDS011;31582;45.490;7.860;2023-05-10T06:42:43;0.98;;;0.60;;
45867;SDS011;31582;45.490;7.860;2023-05-10T06:45:11;0.60;;;0.60;;
45867;SDS011;31582;45.490;7.860;2023-05-10T06:47:39;0.57;;;0.57;;
45867;SDS011;31582;45.490;7.860;2023-05-10T06:50:09;0.80;;;0.60;;
45867;SDS011;31582;45.490;7.860;2023-05-10T06:52:40;0.77;;;0.60;;
45867;SDS011;31582;45.490;7.860;2023-05-10T06:55:07;0.90;;;0.60;;
45867;SDS011;31582;45.490;7.860;2023-05-10T06:57:34;0.80;;;0.80;;
45867;SDS011;31582;45.490;7.860;2023-05-10T07:00:02;0.80;;;0.70;;
45867;SDS011;31582;45.490;7.860;2023-05-10T07:02:32;1.07;;;0.93;;
45867;SDS011;31582;45.490;7.860;2023-05-10T07:04:59;1.40;;;0.90;;
45867;SDS011;31582;45.490;7.860;2023-05-10T07:07:28;0.80;;;0.80;;
45867;SDS011;31582;45.490;7.860;2023-05-10T07:09:55;1.10;;;1.00;;
45867;SDS011;31582;45.490;7.860;2023-05-10T07:12:24;0.70;;;0.70;;
45867;SDS011;31582;45.490;7.860;2023-05-10T07:14:51;1.00;;;0.80;;
45867;SDS011;31582;45.490;7.860;2023-05-10T07:17:18;0.70;;;0.70;;
45867;SDS011;31582;45.490;7.860;2023-05-10T07:19:45;0.60;;;0.60;;
45867;SDS011;31582;45.490;7.860;2023-05-10T07:22:12;0.70;;;0.70;;
45867;SDS011;31582;45.490;7.860;2023-05-10T07:24:39;0.95;;;0.73;;
45867;SDS011;31582;45.490;7.860;2023-05-10T07:27:06;0.90;;;0.70;;
45867;SDS011;31582;45.490;7.860;2023-05-10T07:29:33;1.50;;;1.20;;
45867;SDS011;31582;45.490;7.860;2023-05-10T07:32:00;1.13;;;1.03;;
45867;SDS011;31582;45.490;7.860;2023-05-10T07:34:27;1.20;;;0.90;;
45867;SDS011;31582;45.490;7.860;2023-05-10T07:36:57;1.50;;;1.27;;
45867;SDS011;31582;45.490;7.860;2023-05-10T07:39:25;1.10;;;0.80;;
45867;SDS011;31582;45.490;7.860;2023-05-10T07:41:54;0.90;;;0.80;;
45867;SDS011;31582;45.490;7.860;2023-05-10T07:44:21;0.80;;;0.60;;
45867;SDS011;31582;45.490;7.860;2023-05-10T07:46:48;0.80;;;0.80;;
45867;SDS011;31582;45.490;7.860;2023-05-10T07:49:15;0.82;;;0.70;;
45867;SDS011;31582;45.490;7.860;2023-05-10T07:51:42;0.70;;;0.60;;
45867;SDS011;31582;45.490;7.860;2023-05-10T07:54:09;1.00;;;0.80;;
45867;SDS011;31582;45.490;7.860;2023-05-10T07:56:36;0.80;;;0.70;;
45867;SDS011;31582;45.490;7.860;2023-05-10T07:59:03;0.70;;;0.60;;
45867;SDS011;31582;45.490;7.860;2023-05-10T08:01:31;1.00;;;0.70;;
45867;SDS011;31582;45.490;7.860;2023-05-10T08:03:59;0.90;;;0.45;;
45867;SDS011;31582;45.490;7.860;2023-05-10T08:06:28;1.30;;;0.70;;
45867;SDS011;31582;45.490;7.860;2023-05-10T08:08:56;0.63;;;0.60;;
45867;SDS011;31582;45.490;7.860;2023-05-10T08:11:23;1.30;;;0.80;;
45867;SDS011;31582;45.490;7.860;2023-05-10T08:13:50;1.40;;;0.70;;
45867;SDS011;31582;45.490;7.860;2023-05-10T08:16:17;1.30;;;0.60;;
45867;SDS011;31582;45.490;7.860;2023-05-10T08:18:45;0.60;;;0.60;;
45867;SDS011;31582;45.490;7.860;2023-05-10T08:21:13;0.60;;;0.60;;
45867;SDS011;31582;45.490;7.860;2023-05-10T08:23:41;0.85;;;0.60;;
45867;SDS011;31582;45.490;7.860;2023-05-10T08:26:10;1.13;;;0.70;;
45867;SDS011;31582;45.490;7.860;2023-05-10T08:28:37;0.95;;;0.90;;
45867;SDS011;31582;45.490;7.860;2023-05-10T08:31:04;0.70;;;0.60;;
45867;SDS011;31582;45.490;7.860;2023-05-10T08:33:31;0.60;;;0.40;;
45867;SDS011;31582;45.490;7.860;2023-05-10T08:35:58;0.40;;;0.40;;
45867;SDS011;31582;45.490;7.860;2023-05-10T08:38:25;0.82;;;0.43;;
45867;SDS011;31582;45.490;7.860;2023-05-10T08:40:52;0.40;;;0.40;;
45867;SDS011;31582;45.490;7.860;2023-05-10T08:43:28;0.50;;;0.30;;
45867;SDS011;31582;45.490;7.860;2023-05-10T08:45:56;0.50;;;0.43;;
45867;SDS011;31582;45.490;7.860;2023-05-10T08:48:27;1.15;;;0.43;;
45867;SDS011;31582;45.490;7.860;2023-05-10T08:50:56;0.70;;;0.50;;
45867;SDS011;31582;45.490;7.860;2023-05-10T08:53:26;0.70;;;0.50;;
45867;SDS011;31582;45.490;7.860;2023-05-10T08:55:55;0.70;;;0.40;;
45867;SDS011;31582;45.490;7.860;2023-05-10T08:58:21;0.40;;;0.40;;
45867;SDS011;31582;45.490;7.860;2023-05-10T09:00:49;0.57;;;0.50;;
45867;SDS011;31582;45.490;7.860;2023-05-10T09:03:18;0.40;;;0.40;;
45867;SDS011;31582;45.490;7.860;2023-05-10T09:05:45;0.60;;;0.60;;
45867;SDS011;31582;45.490;7.860;2023-05-10T09:08:13;0.70;;;0.70;;
45867;SDS011;31582;45.490;7.860;2023-05-10T09:10:45;0.50;;;0.50;;
45867;SDS011;31582;45.490;7.860;2023-05-10T09:13:15;0.93;;;0.60;;
45867;SDS011;31582;45.490;7.860;2023-05-10T09:15:43;1.00;;;0.80;;
45867;SDS011;31582;45.490;7.860;2023-05-10T09:18:11;0.77;;;0.70;;
45867;SDS011;31582;45.490;7.860;2023-05-10T09:20:39;0.80;;;0.80;;
45867;SDS011;31582;45.490;7.860;2023-05-10T09:23:06;0.75;;;0.70;;
45867;SDS011;31582;45.490;7.860;2023-05-10T09:25:34;0.60;;;0.60;;
45867;SDS011;31582;45.490;7.860;2023-05-10T09:28:01;0.60;;;0.60;;
45867;SDS011;31582;45.490;7.860;2023-05-10T09:30:32;0.52;;;0.50;;
45867;SDS011;31582;45.490;7.860;2023-05-10T09:32:59;0.60;;;0.60;;
45867;SDS011;31582;45.490;7.860;2023-05-10T09:35:27;0.63;;;0.63;;
45867;SDS011;31582;45.490;7.860;2023-05-10T09:37:59;0.97;;;0.60;;
45867;SDS011;31582;45.490;7.860;2023-05-10T09:40:27;1.00;;;0.50;;
45867;SDS011;31582;45.490;7.860;2023-05-10T09:45:29;0.40;;;0.40;;
45867;SDS011;31582;45.490;7.860;2023-05-10T09:47:57;1.13;;;0.40;;
45867;SDS011;31582;45.490;7.860;2023-05-10T09:50:25;0.70;;;0.55;;
45867;SDS011;31582;45.490;7.860;2023-05-10T09:52:53;0.60;;;0.50;;
45867;SDS011;31582;45.490;7.860;2023-05-10T09:55:24;0.40;;;0.40;;
45867;SDS011;31582;45.490;7.860;2023-05-10T09:58:05;0.80;;;0.70;;
45867;SDS011;31582;45.490;7.860;2023-05-10T10:00:39;0.80;;;0.80;;
45867;SDS011;31582;45.490;7.860;2023-05-10T10:03:14;0.70;;;0.70;;
45867;SDS011;31582;45.490;7.860;2023-05-10T10:05:43;0.60;;;0.60;;
45867;SDS011;31582;45.490;7.860;2023-05-10T10:08:11;1.00;;;0.77;;
45867;SDS011;31582;45.490;7.860;2023-05-10T10:10:39;0.85;;;0.60;;
45867;SDS011;31582;45.490;7.860;2023-05-10T10:13:09;3.75;;;0.90;;
45867;SDS011;31582;45.490;7.860;2023-05-10T10:15:36;1.05;;;0.95;;
45867;SDS011;31582;45.490;7.860;2023-05-10T10:18:03;0.85;;;0.65;;
45867;SDS011;31582;45.490;7.860;2023-05-10T10:20:31;0.75;;;0.60;;
45867;SDS011;31582;45.490;7.860;2023-05-10T10:22:58;0.70;;;0.60;;
45867;SDS011;31582;45.490;7.860;2023-05-10T10:25:25;0.60;;;0.60;;
45867;SDS011;31582;45.490;7.860;2023-05-10T10:36:03;0.57;;;0.50;;
45867;SDS011;31582;45.490;7.860;2023-05-10T10:38:37;0.40;;;0.40;;
45867;SDS011;31582;45.490;7.860;2023-05-10T10:41:11;0.70;;;0.60;;
45867;SDS011;31582;45.490;7.860;2023-05-10T10:46:58;0.50;;;0.50;;
45867;SDS011;31582;45.490;7.860;2023-05-10T10:55:00;0.68;;;0.55;;
45867;SDS011;31582;45.490;7.860;2023-05-10T10:57:51;0.60;;;0.45;;
45867;SDS011;31582;45.490;7.860;2023-05-10T11:00:29;0.40;;;0.30;;
45867;SDS011;31582;45.490;7.860;2023-05-10T11:03:04;0.55;;;0.50;;
45867;SDS011;31582;45.490;7.860;2023-05-10T11:08:11;0.57;;;0.50;;
45867;SDS011;31582;45.490;7.860;2023-05-10T11:10:53;0.50;;;0.30;;
45867;SDS011;31582;45.490;7.860;2023-05-10T11:13:27;0.52;;;0.30;;
45867;SDS011;31582;45.490;7.860;2023-05-10T11:19:03;0.65;;;0.40;;
45867;SDS011;31582;45.490;7.860;2023-05-10T11:21:44;0.63;;;0.57;;
45867;SDS011;31582;45.490;7.860;2023-05-10T11:24:29;0.50;;;0.40;;
45867;SDS011;31582;45.490;7.860;2023-05-10T11:26:56;0.60;;;0.40;;
45867;SDS011;31582;45.490;7.860;2023-05-10T11:29:23;0.40;;;0.30;;
45867;SDS011;31582;45.490;7.860;2023-05-10T11:31:52;0.38;;;0.38;;
45867;SDS011;31582;45.490;7.860;2023-05-10T11:34:26;0.32;;;0.32;;
45867;SDS011;31582;45.490;7.860;2023-05-10T11:36:59;0.40;;;0.40;;
45867;SDS011;31582;45.490;7.860;2023-05-10T11:39:27;0.47;;;0.40;;
45867;SDS011;31582;45.490;7.860;2023-05-10T11:41:56;0.90;;;0.70;;
45867;SDS011;31582;45.490;7.860;2023-05-10T11:44:23;0.70;;;0.55;;
45867;SDS011;31582;45.490;7.860;2023-05-10T11:46:58;0.50;;;0.50;;
45867;SDS011;31582;45.490;7.860;2023-05-10T11:49:26;0.75;;;0.52;;
45867;SDS011;31582;45.490;7.860;2023-05-10T11:51:53;1.45;;;1.35;;
45867;SDS011;31582;45.490;7.860;2023-05-10T11:54:33;1.57;;;1.47;;
45867;SDS011;31582;45.490;7.860;2023-05-10T11:57:01;1.80;;;1.40;;
45867;SDS011;31582;45.490;7.860;2023-05-10T11:59:28;1.20;;;1.10;;
45867;SDS011;31582;45.490;7.860;2023-05-10T12:01:55;1.20;;;1.10;;
45867;SDS011;31582;45.490;7.860;2023-05-10T12:04:22;2.00;;;1.10;;
45867;SDS011;31582;45.490;7.860;2023-05-10T12:06:49;1.15;;;1.00;;
45867;SDS011;31582;45.490;7.860;2023-05-10T12:09:16;1.15;;;1.05;;
45867;SDS011;31582;45.490;7.860;2023-05-10T12:11:56;1.30;;;1.20;;
45867;SDS011;31582;45.490;7.860;2023-05-10T12:14:23;1.65;;;1.20;;
45867;SDS011;31582;45.490;7.860;2023-05-10T12:16:50;1.60;;;1.13;;
45867;SDS011;31582;45.490;7.860;2023-05-10T12:19:18;1.20;;;1.10;;
45867;SDS011;31582;45.490;7.860;2023-05-10T12:21:46;1.30;;;1.20;;
45867;SDS011;31582;45.490;7.860;2023-05-10T12:24:14;1.67;;;1.58;;
45867;SDS011;31582;45.490;7.860;2023-05-10T12:26:44;1.30;;;1.20;;
45867;SDS011;31582;45.490;7.860;2023-05-10T12:29:15;2.05;;;1.50;;
45867;SDS011;31582;45.490;7.860;2023-05-10T12:34:24;1.80;;;1.40;;
45867;SDS011;31582;45.490;7.860;2023-05-10T12:36:52;1.30;;;1.20;;
45867;SDS011;31582;45.490;7.860;2023-05-10T12:39:19;1.30;;;1.10;;
45867;SDS011;31582;45.490;7.860;2023-05-10T12:41:46;1.20;;;1.10;;
45867;SDS011;31582;45.490;7.860;2023-05-10T12:44:13;1.40;;;1.30;;
45867;SDS011;31582;45.490;7.860;2023-05-10T12:46:41;0.90;;;0.90;;
45867;SDS011;31582;45.490;7.860;2023-05-10T12:49:08;1.10;;;0.73;;
45867;SDS011;31582;45.490;7.860;2023-05-10T12:51:35;0.90;;;0.70;;
45867;SDS011;31582;45.490;7.860;2023-05-10T12:54:02;0.83;;;0.83;;
45867;SDS011;31582;45.490;7.860;2023-05-10T12:56:29;0.68;;;0.68;;
45867;SDS011;31582;45.490;7.860;2023-05-10T12:58:56;0.75;;;0.70;;
45867;SDS011;31582;45.490;7.860;2023-05-10T13:01:23;0.77;;;0.65;;
45867;SDS011;31582;45.490;7.860;2023-05-10T13:03:50;0.80;;;0.68;;
45867;SDS011;31582;45.490;7.860;2023-05-10T13:06:17;0.80;;;0.68;;
45867;SDS011;31582;45.490;7.860;2023-05-10T13:08:44;0.70;;;0.70;;
45867;SDS011;31582;45.490;7.860;2023-05-10T13:11:11;0.60;;;0.60;;
45867;SDS011;31582;45.490;7.860;2023-05-10T13:13:42;0.88;;;0.52;;
45867;SDS011;31582;45.490;7.860;2023-05-10T13:16:09;0.93;;;0.88;;
45867;SDS011;31582;45.490;7.860;2023-05-10T13:18:36;0.75;;;0.70;;
45867;SDS011;31582;45.490;7.860;2023-05-10T13:21:03;0.93;;;0.93;;
45867;SDS011;31582;45.490;7.860;2023-05-10T13:23:31;0.70;;;0.70;;
45867;SDS011;31582;45.490;7.860;2023-05-10T13:25:58;2.13;;;1.00;;
45867;SDS011;31582;45.490;7.860;2023-05-10T13:28:25;1.05;;;0.60;;
45867;SDS011;31582;45.490;7.860;2023-05-10T13:30:52;1.48;;;0.80;;
45867;SDS011;31582;45.490;7.860;2023-05-10T13:33:19;0.80;;;0.60;;
45867;SDS011;31582;45.490;7.860;2023-05-10T13:35:46;1.90;;;1.00;;
45867;SDS011;31582;45.490;7.860;2023-05-10T13:38:13;1.25;;;0.75;;
45867;SDS011;31582;45.490;7.860;2023-05-10T13:40:40;0.50;;;0.50;;
45867;SDS011;31582;45.490;7.860;2023-05-10T13:43:07;1.00;;;0.70;;
45867;SDS011;31582;45.490;7.860;2023-05-10T13:45:34;0.70;;;0.60;;
45867;SDS011;31582;45.490;7.860;2023-05-10T13:48:00;0.80;;;0.40;;
45867;SDS011;31582;45.490;7.860;2023-05-10T13:50:27;0.68;;;0.60;;
45867;SDS011;31582;45.490;7.860;2023-05-10T13:52:54;0.50;;;0.47;;
45867;SDS011;31582;45.490;7.860;2023-05-10T13:55:21;0.47;;;0.40;;
45867;SDS011;31582;45.490;7.860;2023-05-10T13:57:48;0.90;;;0.60;;
45867;SDS011;31582;45.490;7.860;2023-05-10T14:00:15;0.40;;;0.40;;
45867;SDS011;31582;45.490;7.860;2023-05-10T14:02:42;0.60;;;0.40;;
45867;SDS011;31582;45.490;7.860;2023-05-10T14:05:09;0.75;;;0.57;;
45867;SDS011;31582;45.490;7.860;2023-05-10T14:07:36;1.63;;;0.57;;
45867;SDS011;31582;45.490;7.860;2023-05-10T14:10:03;0.73;;;0.60;;
45867;SDS011;31582;45.490;7.860;2023-05-10T14:12:31;0.80;;;0.70;;
45867;SDS011;31582;45.490;7.860;2023-05-10T14:14:58;1.33;;;0.55;;
45867;SDS011;31582;45.490;7.860;2023-05-10T14:17:25;0.90;;;0.60;;
45867;SDS011;31582;45.490;7.860;2023-05-10T14:19:52;0.80;;;0.70;;
45867;SDS011;31582;45.490;7.860;2023-05-10T14:22:19;0.70;;;0.70;;
45867;SDS011;31582;45.490;7.860;2023-05-10T14:24:46;0.80;;;0.60;;
45867;SDS011;31582;45.490;7.860;2023-05-10T14:27:13;0.90;;;0.63;;
45867;SDS011;31582;45.490;7.860;2023-05-10T14:29:41;0.50;;;0.50;;
45867;SDS011;31582;45.490;7.860;2023-05-10T14:32:08;0.50;;;0.50;;
45867;SDS011;31582;45.490;7.860;2023-05-10T14:34:35;0.60;;;0.60;;
45867;SDS011;31582;45.490;7.860;2023-05-10T14:37:02;0.68;;;0.50;;
45867;SDS011;31582;45.490;7.860;2023-05-10T14:39:29;0.60;;;0.50;;
45867;SDS011;31582;45.490;7.860;2023-05-10T14:41:56;0.80;;;0.70;;
45867;SDS011;31582;45.490;7.860;2023-05-10T14:44:23;0.90;;;0.80;;
45867;SDS011;31582;45.490;7.860;2023-05-10T14:46:50;1.30;;;0.60;;
45867;SDS011;31582;45.490;7.860;2023-05-10T14:49:17;0.65;;;0.60;;
45867;SDS011;31582;45.490;7.860;2023-05-10T14:51:44;0.75;;;0.52;;
45867;SDS011;31582;45.490;7.860;2023-05-10T14:54:11;1.33;;;0.80;;
45867;SDS011;31582;45.490;7.860;2023-05-10T14:56:38;0.70;;;0.50;;
45867;SDS011;31582;45.490;7.860;2023-05-10T14:59:07;0.57;;;0.50;;
45867;SDS011;31582;45.490;7.860;2023-05-10T15:01:35;0.60;;;0.60;;
45867;SDS011;31582;45.490;7.860;2023-05-10T15:04:04;1.05;;;0.50;;
45867;SDS011;31582;45.490;7.860;2023-05-10T15:06:32;0.50;;;0.40;;
45867;SDS011;31582;45.490;7.860;2023-05-10T15:09:01;0.45;;;0.40;;
45867;SDS011;31582;45.490;7.860;2023-05-10T15:11:29;0.90;;;0.50;;
45867;SDS011;31582;45.490;7.860;2023-05-10T15:13:56;0.70;;;0.68;;
45867;SDS011;31582;45.490;7.860;2023-05-10T15:16:23;0.73;;;0.73;;
45867;SDS011;31582;45.490;7.860;2023-05-10T15:18:53;1.08;;;0.70;;
45867;SDS011;31582;45.490;7.860;2023-05-10T15:21:20;1.13;;;0.68;;
45867;SDS011;31582;45.490;7.860;2023-05-10T15:23:47;1.00;;;0.70;;
45867;SDS011;31582;45.490;7.860;2023-05-10T15:26:15;1.10;;;0.60;;
45867;SDS011;31582;45.490;7.860;2023-05-10T15:28:42;1.20;;;0.90;;
45867;SDS011;31582;45.490;7.860;2023-05-10T15:31:09;1.60;;;0.82;;
45867;SDS011;31582;45.490;7.860;2023-05-10T15:33:36;1.00;;;0.80;;
45867;SDS011;31582;45.490;7.860;2023-05-10T15:36:04;1.10;;;0.60;;
45867;SDS011;31582;45.490;7.860;2023-05-10T15:38:32;1.48;;;1.10;;
45867;SDS011;31582;45.490;7.860;2023-05-10T15:40:59;0.88;;;0.80;;
45867;SDS011;31582;45.490;7.860;2023-05-10T15:43:26;0.70;;;0.70;;
45867;SDS011;31582;45.490;7.860;2023-05-10T15:45:53;1.08;;;0.85;;